createdAt,value
2023-02-19T00:00:03.866Z,100827.84
2023-02-19T00:02:35.878Z,100824.66
2023-02-19T00:05:07.396Z,100827.19
2023-02-19T00:07:39.148Z,100820.97
2023-02-19T00:10:10.690Z,100826.09
2023-02-19T00:12:42.605Z,100828.09
2023-02-19T00:15:14.110Z,100828.53
2023-02-19T00:17:45.984Z,100823.69
2023-02-19T00:20:17.494Z,100825.34
2023-02-19T00:22:49.101Z,100822.88
2023-02-19T00:25:20.638Z,100828.81
2023-02-19T00:27:52.459Z,100821.06
2023-02-19T00:30:23.997Z,100572.53
2023-02-19T00:32:55.933Z,100813.28
2023-02-19T00:35:27.455Z,100807.75
2023-02-19T00:37:59.286Z,100800.19
2023-02-19T00:40:30.803Z,100798.44
2023-02-19T00:43:02.707Z,100804.78
2023-02-19T00:45:35.680Z,100805.41
2023-02-19T00:48:07.374Z,100801.31
2023-02-19T00:50:38.863Z,100808.59
2023-02-19T00:53:10.748Z,100808.78
2023-02-19T00:55:42.253Z,100802.31
2023-02-19T00:58:13.800Z,100793.38
2023-02-19T01:00:45.313Z,100790.28
2023-02-19T01:03:16.836Z,100787.72
2023-02-19T01:05:48.497Z,100793.38
2023-02-19T01:08:20.037Z,100790.00
2023-02-19T01:10:51.523Z,100784.69
2023-02-19T01:13:23.361Z,100784.81
2023-02-19T01:15:54.898Z,100785.63
2023-02-19T01:18:26.766Z,100777.59
2023-02-19T01:20:58.304Z,100776.50
2023-02-19T01:23:30.102Z,100755.34
2023-02-19T01:26:01.652Z,100737.38
2023-02-19T01:28:33.659Z,100730.16
2023-02-19T01:31:05.186Z,100714.56
2023-02-19T01:33:36.898Z,100738.09
2023-02-19T01:36:08.423Z,100740.38
2023-02-19T01:38:40.229Z,100744.41
2023-02-19T01:41:12.038Z,100739.47
2023-02-19T01:43:44.140Z,100743.56
2023-02-19T01:46:15.659Z,100732.81
2023-02-19T01:48:47.546Z,100734.63
2023-02-19T01:51:19.042Z,100728.91
2023-02-19T01:53:50.894Z,100725.25
2023-02-19T01:56:22.433Z,100719.16
2023-02-19T01:58:54.492Z,100726.25
2023-02-19T02:01:26.034Z,100718.19
2023-02-19T02:03:57.935Z,100714.78
2023-02-19T02:06:29.490Z,100714.41
2023-02-19T02:09:19.952Z,100707.25
2023-02-19T02:11:51.464Z,100703.59
2023-02-19T02:14:23.325Z,100696.66
2023-02-19T02:16:54.844Z,100702.59
2023-02-19T02:19:28.044Z,100706.22
2023-02-19T02:21:59.539Z,100698.66
2023-02-19T02:24:31.446Z,100707.16
2023-02-19T02:27:04.070Z,100706.34
2023-02-19T02:29:35.911Z,100703.44
2023-02-19T02:32:07.500Z,100708.09
2023-02-19T02:34:39.219Z,100709.56
2023-02-19T02:37:10.717Z,100710.66
2023-02-19T02:39:42.668Z,100699.19
2023-02-19T02:42:29.239Z,100690.25
2023-02-19T02:45:19.620Z,100686.34
2023-02-19T02:47:51.311Z,100690.38
2023-02-19T02:50:23.190Z,100701.19
2023-02-19T02:53:13.905Z,100685.97
2023-02-19T02:55:45.404Z,100689.78
2023-02-19T02:58:16.945Z,100694.44
2023-02-19T03:01:07.430Z,100690.91
2023-02-19T03:03:39.551Z,100701.72
2023-02-19T03:06:11.056Z,100694.25
2023-02-19T03:08:42.672Z,100701.00
2023-02-19T03:11:32.900Z,100689.63
2023-02-19T03:14:23.440Z,100697.38
2023-02-19T03:17:13.561Z,100693.72
2023-02-19T03:19:45.446Z,100698.53
2023-02-19T03:22:17.018Z,100707.16
2023-02-19T03:25:07.595Z,100706.69
2023-02-19T03:27:39.131Z,100718.63
2023-02-19T03:30:10.703Z,100713.97
2023-02-19T03:32:42.302Z,100709.84
2023-02-19T03:35:13.868Z,100715.69
2023-02-19T03:37:45.517Z,100718.56
2023-02-19T03:40:17.068Z,100713.41
2023-02-19T03:42:48.562Z,100721.19
2023-02-19T03:45:20.082Z,100720.91
2023-02-19T03:47:53.133Z,100724.09
2023-02-19T03:50:24.994Z,100724.78
2023-02-19T03:52:56.490Z,100724.78
2023-02-19T03:55:28.292Z,100733.50
2023-02-19T03:57:59.781Z,100732.63
2023-02-19T04:00:31.295Z,100737.94
2023-02-19T04:03:02.798Z,100737.44
2023-02-19T04:05:34.671Z,100740.41
2023-02-19T04:08:06.202Z,100742.72
2023-02-19T04:13:28.506Z,100758.84
2023-02-19T04:16:00.007Z,100760.31
2023-02-19T04:18:31.767Z,100758.84
2023-02-19T04:21:03.259Z,100759.66
2023-02-19T04:23:35.121Z,100760.31
2023-02-19T04:26:07.983Z,100771.88
2023-02-19T04:28:39.657Z,100774.00
2023-02-19T04:31:11.698Z,100782.41
2023-02-19T04:33:43.489Z,100786.34
2023-02-19T04:36:15.007Z,100797.38
2023-02-19T04:38:46.515Z,100791.78
2023-02-19T04:41:18.042Z,100795.06
2023-02-19T04:43:49.521Z,100790.94
2023-02-19T04:46:21.090Z,100798.19
2023-02-19T04:48:52.642Z,100800.84
2023-02-19T04:51:24.390Z,100793.94
2023-02-19T04:53:56.406Z,100788.19
2023-02-19T04:56:28.334Z,100789.50
2023-02-19T04:59:00.090Z,100795.59
2023-02-19T05:01:31.600Z,100801.19
2023-02-19T05:04:04.914Z,100805.78
2023-02-19T05:06:36.469Z,100803.16
2023-02-19T05:09:08.098Z,100803.66
2023-02-19T05:11:39.630Z,100800.03
2023-02-19T05:14:11.529Z,100796.22
2023-02-19T05:16:43.066Z,100799.00
2023-02-19T05:19:14.554Z,100805.59
2023-02-19T05:21:46.101Z,100802.13
2023-02-19T05:24:17.636Z,100798.34
2023-02-19T05:26:49.127Z,100804.44
2023-02-19T05:29:20.641Z,100802.13
2023-02-19T05:31:52.262Z,100814.31
2023-02-19T05:34:24.188Z,100806.56
2023-02-19T05:36:55.684Z,100822.69
2023-02-19T05:39:27.457Z,100818.91
2023-02-19T05:41:58.940Z,100818.91
2023-02-19T05:44:30.773Z,100809.69
2023-02-19T05:47:02.278Z,100810.69
2023-02-19T05:49:34.054Z,100280.81
2023-02-19T05:52:05.562Z,100812.97
2023-02-19T05:54:37.407Z,100822.88
2023-02-19T05:57:08.972Z,100824.69
2023-02-19T05:59:40.866Z,100818.44
2023-02-19T06:02:12.353Z,100822.06
2023-02-19T06:04:44.302Z,100827.13
2023-02-19T06:07:15.781Z,100827.47
2023-02-19T06:09:47.615Z,100834.38
2023-02-19T06:12:19.124Z,100830.47
2023-02-19T06:14:50.947Z,100836.41
2023-02-19T06:17:22.424Z,100840.00
2023-02-19T06:19:54.287Z,100841.66
2023-02-19T06:22:25.800Z,100843.78
2023-02-19T06:24:57.702Z,100849.22
2023-02-19T06:27:29.246Z,100838.34
2023-02-19T06:30:01.282Z,100843.78
2023-02-19T06:32:32.820Z,100847.72
2023-02-19T06:35:04.724Z,100846.22
2023-02-19T06:37:36.259Z,100841.63
2023-02-19T06:40:08.067Z,100851.03
2023-02-19T06:42:39.627Z,100857.28
2023-02-19T06:45:11.405Z,100870.28
2023-02-19T06:47:42.953Z,100871.41
2023-02-19T06:50:14.456Z,100886.38
2023-02-19T06:52:45.944Z,100899.91
2023-02-19T06:55:17.447Z,100909.47
2023-02-19T06:57:48.950Z,100915.69
2023-02-19T07:00:20.472Z,100912.06
2023-02-19T07:02:56.457Z,100923.91
2023-02-19T07:05:28.301Z,100924.91
2023-02-19T07:07:59.820Z,100925.56
2023-02-19T07:10:31.638Z,100924.06
2023-02-19T07:13:03.176Z,100927.03
2023-02-19T07:15:35.065Z,100932.81
2023-02-19T07:18:10.305Z,100935.94
2023-02-19T07:20:42.114Z,100943.16
2023-02-19T07:23:13.610Z,100947.06
2023-02-19T07:25:45.361Z,100959.06
2023-02-19T07:28:16.934Z,100956.44
2023-02-19T07:30:48.749Z,100960.69
2023-02-19T07:33:20.263Z,100962.53
2023-02-19T07:35:52.148Z,100959.72
2023-02-19T07:38:23.673Z,100958.06
2023-02-19T07:40:55.353Z,100959.25
2023-02-19T07:43:26.883Z,100968.63
2023-02-19T07:45:58.707Z,100971.56
2023-02-19T07:48:30.227Z,100975.69
2023-02-19T07:51:02.065Z,100980.47
2023-02-19T07:53:33.557Z,100985.91
2023-02-19T07:56:05.376Z,100991.16
2023-02-19T07:58:36.875Z,100995.28
2023-02-19T08:01:09.022Z,101006.47
2023-02-19T08:03:40.731Z,101010.09
2023-02-19T08:06:12.678Z,101016.97
2023-02-19T08:08:44.275Z,101023.47
2023-02-19T08:11:48.829Z,101026.94
2023-02-19T08:14:20.343Z,101034.97
2023-02-19T08:16:52.151Z,101033.59
2023-02-19T08:19:23.846Z,101048.19
2023-02-19T08:21:55.708Z,101057.34
2023-02-19T08:24:27.240Z,101069.50
2023-02-19T08:26:59.074Z,101060.13
2023-02-19T08:29:30.581Z,101071.03
2023-02-19T08:32:02.523Z,101078.31
2023-02-19T08:34:34.066Z,101082.72
2023-02-19T08:37:05.781Z,101097.22
2023-02-19T08:39:37.292Z,101102.31
2023-02-19T08:42:09.093Z,101103.84
2023-02-19T08:44:40.590Z,101109.47
2023-02-19T08:47:12.502Z,101105.25
2023-02-19T08:49:43.987Z,101109.25
2023-02-19T08:52:15.535Z,101114.56
2023-02-19T08:54:47.049Z,101116.34
2023-02-19T08:57:19.357Z,101124.03
2023-02-19T08:59:50.858Z,101125.53
2023-02-19T09:02:22.632Z,101129.56
2023-02-19T09:04:54.179Z,101131.69
2023-02-19T09:07:25.978Z,101129.31
2023-02-19T09:09:57.546Z,101131.72
2023-02-19T09:12:29.393Z,101139.75
2023-02-19T09:15:01.214Z,101136.31
2023-02-19T09:17:32.713Z,101139.94
2023-02-19T09:20:04.588Z,101146.72
2023-02-19T09:22:36.119Z,101145.59
2023-02-19T09:25:08.019Z,101143.13
2023-02-19T09:27:39.533Z,101144.97
2023-02-19T09:30:11.133Z,101147.69
2023-02-19T09:32:42.658Z,101164.09
2023-02-19T09:35:14.225Z,101162.38
2023-02-19T09:37:45.729Z,101175.72
2023-02-19T09:40:21.512Z,101170.34
2023-02-19T09:42:53.138Z,101169.22
2023-02-19T09:45:24.721Z,101163.53
2023-02-19T09:47:56.223Z,101179.50
2023-02-19T09:50:27.935Z,101184.28
2023-02-19T09:52:59.617Z,101186.09
2023-02-19T09:55:31.431Z,101184.28
2023-02-19T09:58:02.931Z,101196.06
2023-02-19T10:00:34.833Z,101194.78
2023-02-19T10:03:06.431Z,101196.75
2023-02-19T10:05:38.125Z,101191.66
2023-02-19T10:08:09.611Z,101207.81
2023-02-19T10:10:41.776Z,101200.44
2023-02-19T10:13:13.297Z,101209.22
2023-02-19T10:15:44.966Z,101220.66
2023-02-19T10:18:16.488Z,101220.94
2023-02-19T10:20:48.258Z,101230.31
2023-02-19T10:23:19.760Z,101235.66
2023-02-19T10:25:51.629Z,101243.69
2023-02-19T10:28:23.238Z,101248.09
2023-02-19T10:30:55.047Z,101250.94
2023-02-19T10:33:26.674Z,101242.63
2023-02-19T10:35:58.840Z,101249.44
2023-02-19T10:38:30.390Z,101254.66
2023-02-19T10:41:02.308Z,101264.78
2023-02-19T10:43:34.003Z,101264.25
2023-02-19T10:46:06.038Z,101264.78
2023-02-19T10:48:37.657Z,101260.06
2023-02-19T10:51:09.955Z,101275.63
2023-02-19T10:53:41.674Z,101278.19
2023-02-19T10:56:13.194Z,101280.22
2023-02-19T10:58:45.004Z,101281.84
2023-02-19T11:01:16.594Z,101286.53
2023-02-19T11:03:48.137Z,101287.66
2023-02-19T11:06:20.599Z,101291.94
2023-02-19T11:08:52.184Z,101295.00
2023-02-19T11:11:24.128Z,101302.72
2023-02-19T11:13:55.701Z,101307.09
2023-02-19T11:16:27.703Z,101315.63
2023-02-19T11:18:59.295Z,101318.16
2023-02-19T11:21:33.755Z,101317.22
2023-02-19T11:24:05.252Z,101322.63
2023-02-19T11:26:38.455Z,101327.47
2023-02-19T11:29:09.980Z,101338.03
2023-02-19T11:31:41.657Z,101315.66
2023-02-19T11:34:13.220Z,101327.06
2023-02-19T11:36:45.112Z,101321.31
2023-02-19T11:39:16.641Z,101323.25
2023-02-19T11:41:48.426Z,101327.34
2023-02-19T11:44:19.934Z,101342.00
2023-02-19T11:46:51.797Z,101345.44
2023-02-19T11:49:23.317Z,101337.97
2023-02-19T11:51:55.147Z,101351.69
2023-02-19T11:54:26.648Z,101344.19
2023-02-19T11:56:58.521Z,101336.41
2023-02-19T11:59:30.039Z,101335.84
2023-02-19T12:02:01.806Z,101330.00
2023-02-19T12:04:33.342Z,101333.47
2023-02-19T12:07:05.164Z,101337.50
2023-02-19T12:09:36.662Z,101342.34
2023-02-19T12:12:08.897Z,101337.72
2023-02-19T12:14:40.418Z,101341.06
2023-02-19T12:17:12.258Z,101344.13
2023-02-19T12:19:43.799Z,101338.03
2023-02-19T12:22:15.356Z,101347.03
2023-02-19T12:24:46.949Z,101341.28
2023-02-19T12:27:19.956Z,101344.41
2023-02-19T12:29:51.500Z,101356.38
2023-02-19T12:32:23.301Z,101359.22
2023-02-19T12:34:54.835Z,101359.88
2023-02-19T12:37:26.680Z,101369.16
2023-02-19T12:39:58.227Z,101375.00
2023-02-19T12:42:30.015Z,101373.44
2023-02-19T12:45:01.519Z,101376.53
2023-02-19T12:47:33.475Z,101370.47
2023-02-19T12:50:04.975Z,101373.22
2023-02-19T12:52:37.090Z,101378.41
2023-02-19T12:55:08.586Z,101377.94
2023-02-19T12:57:40.362Z,101382.03
2023-02-19T13:00:11.867Z,101372.97
2023-02-19T13:02:43.721Z,101389.00
2023-02-19T13:05:15.244Z,101391.28
2023-02-19T13:07:46.983Z,101397.31
2023-02-19T13:10:18.519Z,101398.56
2023-02-19T13:12:50.400Z,101394.53
2023-02-19T13:15:21.964Z,101400.50
2023-02-19T13:17:53.789Z,101402.47
2023-02-19T13:20:25.671Z,101413.03
2023-02-19T13:23:15.837Z,101417.56
2023-02-19T13:25:47.768Z,101417.81
2023-02-19T13:28:19.277Z,101409.94
2023-02-19T13:30:51.338Z,101417.66
2023-02-19T13:33:22.972Z,101410.97
2023-02-19T13:35:54.852Z,101410.69
2023-02-19T13:38:26.344Z,101425.63
2023-02-19T13:40:58.220Z,101416.34
2023-02-19T13:43:29.712Z,101404.16
2023-02-19T13:46:01.572Z,101411.41
2023-02-19T13:48:33.090Z,101409.81
2023-02-19T13:51:04.831Z,101411.56
2023-02-19T13:53:36.337Z,101402.47
2023-02-19T13:56:08.165Z,101417.06
2023-02-19T13:58:39.865Z,101420.31
2023-02-19T14:01:12.233Z,101427.50
2023-02-19T14:03:43.974Z,101429.22
2023-02-19T14:06:15.557Z,101429.69
2023-02-19T14:08:47.316Z,101430.81
2023-02-19T14:11:18.884Z,101434.50
2023-02-19T14:13:54.502Z,101447.22
2023-02-19T14:16:26.311Z,101449.06
2023-02-19T14:18:57.831Z,101452.13
2023-02-19T14:21:29.583Z,101455.66
2023-02-19T14:24:01.107Z,101451.47
2023-02-19T14:26:32.950Z,101449.00
2023-02-19T14:29:04.468Z,101445.28
2023-02-19T14:31:36.466Z,101451.63
2023-02-19T14:34:08.336Z,101446.28
2023-02-19T14:36:40.856Z,101453.16
2023-02-19T14:39:12.391Z,101452.88
2023-02-19T14:41:44.275Z,101462.06
2023-02-19T14:44:15.778Z,101457.38
2023-02-19T14:46:49.238Z,101461.72
2023-02-19T14:49:20.731Z,101467.25
2023-02-19T14:51:52.624Z,101474.03
2023-02-19T14:54:24.104Z,101471.03
2023-02-19T14:56:56.014Z,101478.59
2023-02-19T14:59:27.599Z,101477.41
2023-02-19T15:01:59.506Z,101485.41
2023-02-19T15:04:31.467Z,101473.69
2023-02-19T15:07:03.364Z,101492.53
2023-02-19T15:09:34.855Z,101493.00
2023-02-19T15:12:06.681Z,101492.31
2023-02-19T15:14:38.216Z,101498.41
2023-02-19T15:17:10.131Z,101487.13
2023-02-19T15:19:41.617Z,101494.56
2023-02-19T15:22:13.322Z,101493.97
2023-02-19T15:24:48.244Z,101496.91
2023-02-19T15:27:20.174Z,101499.94
2023-02-19T15:29:53.448Z,101509.06
2023-02-19T15:32:26.977Z,101505.13
2023-02-19T15:34:58.499Z,101502.53
2023-02-19T15:37:30.308Z,101493.56
2023-02-19T15:40:01.852Z,101497.84
2023-02-19T15:42:33.768Z,101503.63
2023-02-19T15:45:05.350Z,101499.41
2023-02-19T15:47:37.256Z,101502.03
2023-02-19T15:50:09.069Z,101411.44
2023-02-19T15:52:40.746Z,101507.56
2023-02-19T15:55:12.249Z,101519.72
2023-02-19T15:57:44.134Z,101523.69
2023-02-19T16:00:15.738Z,101509.00
2023-02-19T16:02:47.759Z,101515.63
2023-02-19T16:05:19.349Z,101524.19
2023-02-19T16:07:51.061Z,101529.53
2023-02-19T16:10:22.597Z,101539.28
2023-02-19T16:12:54.410Z,101545.09
2023-02-19T16:15:25.945Z,101546.44
2023-02-19T16:17:57.880Z,101553.00
2023-02-19T16:20:29.441Z,101552.06
2023-02-19T16:23:01.062Z,101560.13
2023-02-19T16:25:32.666Z,101558.81
2023-02-19T16:28:04.531Z,101563.94
2023-02-19T16:30:36.263Z,101577.16
2023-02-19T16:33:19.602Z,101583.13
2023-02-19T16:35:52.482Z,101578.44
2023-02-19T16:38:24.421Z,101580.75
2023-02-19T16:40:56.004Z,101581.25
2023-02-19T16:43:27.855Z,101496.09
2023-02-19T16:45:59.446Z,101589.19
2023-02-19T16:48:31.007Z,101583.56
2023-02-19T16:51:02.963Z,101592.28
2023-02-19T16:53:34.801Z,101591.25
2023-02-19T16:56:06.378Z,101600.50
2023-02-19T16:58:39.927Z,101599.97
2023-02-19T17:01:11.988Z,101604.25
2023-02-19T17:03:44.188Z,101603.41
2023-02-19T17:06:15.786Z,101612.47
2023-02-19T17:08:47.604Z,101605.84
2023-02-19T17:11:19.141Z,101614.22
2023-02-19T17:13:50.938Z,101614.03
2023-02-19T17:16:22.703Z,101619.13
2023-02-19T17:18:54.845Z,101609.53
2023-02-19T17:21:26.716Z,101612.50
2023-02-19T17:23:58.189Z,101606.88
2023-02-19T17:26:29.848Z,101607.50
2023-02-19T17:29:01.328Z,101619.66
2023-02-19T17:31:34.178Z,101622.44
2023-02-19T17:34:05.854Z,101617.94
2023-02-19T17:36:38.294Z,101620.84
2023-02-19T17:39:14.996Z,101621.81
2023-02-19T17:41:46.483Z,101624.28
2023-02-19T17:44:18.018Z,101631.38
2023-02-19T17:46:49.745Z,101629.88
2023-02-19T17:49:21.350Z,101630.19
2023-02-19T17:51:53.238Z,101635.63
2023-02-19T17:54:24.741Z,101635.78
2023-02-19T17:56:59.595Z,101640.22
2023-02-19T17:59:31.138Z,101641.66
2023-02-19T18:02:03.771Z,101636.53
2023-02-19T18:04:36.625Z,101641.81
2023-02-19T18:07:08.884Z,101644.31
2023-02-19T18:09:41.129Z,101637.88
2023-02-19T18:12:12.814Z,101643.16
2023-02-19T18:14:44.330Z,101645.81
2023-02-19T18:17:15.843Z,101651.38
2023-02-19T18:19:47.487Z,101647.25
2023-02-19T18:22:18.994Z,101656.00
2023-02-19T18:24:50.505Z,101651.66
2023-02-19T18:27:23.814Z,101656.88
2023-02-19T18:29:55.469Z,101671.50
2023-02-19T18:32:27.438Z,101669.69
2023-02-19T18:35:00.040Z,101665.84
2023-02-19T18:37:33.411Z,101668.50
2023-02-19T18:40:05.025Z,101665.47
2023-02-19T18:42:36.534Z,101665.03
2023-02-19T18:45:10.518Z,101677.06
2023-02-19T18:47:42.447Z,101666.00
2023-02-19T18:50:13.995Z,101667.28
2023-02-19T18:52:45.580Z,101667.75
2023-02-19T18:55:17.219Z,101673.47
2023-02-19T18:57:49.059Z,101678.47
2023-02-19T19:00:20.693Z,101676.97
2023-02-19T19:02:52.550Z,101676.97
2023-02-19T19:05:24.069Z,101674.63
2023-02-19T19:07:55.671Z,101668.16
2023-02-19T19:10:27.309Z,101673.88
2023-02-19T19:12:58.976Z,101664.16
2023-02-19T19:15:30.582Z,101669.72
2023-02-19T19:18:02.823Z,101656.69
2023-02-19T19:20:34.397Z,101670.16
2023-02-19T19:23:06.369Z,101669.63
2023-02-19T19:25:37.957Z,101675.22
2023-02-19T19:28:10.005Z,101680.78
2023-02-19T19:30:41.711Z,101669.25
2023-02-19T19:33:14.285Z,101672.97
2023-02-19T19:35:46.032Z,101673.28
2023-02-19T19:38:17.601Z,101667.09
2023-02-19T19:40:49.157Z,101673.78
2023-02-19T19:43:20.795Z,101667.09
2023-02-19T19:45:52.384Z,101664.16
2023-02-19T19:48:24.298Z,101662.22
2023-02-19T19:50:57.072Z,101666.78
2023-02-19T19:53:28.979Z,101666.13
2023-02-19T19:56:00.549Z,101665.28
2023-02-19T19:58:33.440Z,101662.56
2023-02-19T20:01:06.048Z,101661.88
2023-02-19T20:03:38.015Z,101661.78
2023-02-19T20:06:09.521Z,101662.91
2023-02-19T20:08:41.300Z,101660.97
2023-02-19T20:11:13.011Z,101651.88
2023-02-19T20:13:44.809Z,101665.63
2023-02-19T20:16:16.396Z,101667.31
2023-02-19T20:18:47.983Z,101667.75
2023-02-19T20:21:19.491Z,101677.69
2023-02-19T20:23:51.431Z,101678.66
2023-02-19T20:26:23.009Z,101685.44
2023-02-19T20:28:54.806Z,101683.09
2023-02-19T20:31:26.771Z,101684.06
2023-02-19T20:33:58.688Z,101686.16
2023-02-19T20:36:30.250Z,101686.03
2023-02-19T20:39:02.046Z,101691.56
2023-02-19T20:41:33.531Z,101686.59
2023-02-19T20:44:05.366Z,101686.88
2023-02-19T20:46:36.977Z,101694.06
2023-02-19T20:49:08.870Z,101692.41
2023-02-19T20:51:40.352Z,101690.63
2023-02-19T20:54:12.194Z,101690.75
2023-02-19T20:56:43.682Z,101689.38
2023-02-19T20:59:15.226Z,101681.63
2023-02-19T21:01:46.762Z,101683.72
2023-02-19T21:04:19.022Z,101686.63
2023-02-19T21:06:52.313Z,101683.31
2023-02-19T21:09:24.160Z,101683.56
2023-02-19T21:11:55.772Z,101685.78
2023-02-19T21:14:27.497Z,101690.34
2023-02-19T21:16:58.964Z,101682.59
2023-02-19T21:19:30.536Z,101684.41
2023-02-19T21:22:02.053Z,101685.50
2023-02-19T21:24:33.818Z,101677.91
2023-02-19T21:27:05.347Z,101676.50
2023-02-19T21:29:37.369Z,101673.06
2023-02-19T21:32:09.047Z,101665.88
2023-02-19T21:34:40.880Z,101661.28
2023-02-19T21:37:12.380Z,101666.41
2023-02-19T21:39:44.191Z,101656.31
2023-02-19T21:42:15.749Z,101648.28
2023-02-19T21:44:47.946Z,101648.13
2023-02-19T21:47:19.467Z,101642.59
2023-02-19T21:49:51.166Z,101641.47
2023-02-19T21:52:23.408Z,101639.56
2023-02-19T21:54:54.980Z,101639.28
2023-02-19T21:57:26.536Z,101641.63
2023-02-19T21:59:58.470Z,101642.88
2023-02-19T22:02:30.063Z,101643.28
2023-02-19T22:05:02.999Z,101629.84
2023-02-19T22:07:34.527Z,101629.53
2023-02-19T22:10:06.430Z,101627.59
2023-02-19T22:12:37.972Z,101623.16
2023-02-19T22:15:09.849Z,101612.66
2023-02-19T22:17:41.394Z,101611.97
2023-02-19T22:20:12.940Z,101600.06
2023-02-19T22:22:44.444Z,101606.59
2023-02-19T22:25:15.964Z,101594.00
2023-02-19T22:27:48.945Z,101593.91
2023-02-19T22:30:20.557Z,101589.72
2023-02-19T22:32:52.506Z,101591.13
2023-02-19T22:35:24.043Z,101584.50
2023-02-19T22:37:55.865Z,101592.66
2023-02-19T22:40:27.374Z,101589.34
2023-02-19T22:42:59.165Z,101593.91
2023-02-19T22:45:30.710Z,101600.84
2023-02-19T22:48:02.514Z,101608.03
2023-02-19T22:50:34.021Z,101605.97
2023-02-19T22:53:05.800Z,101617.44
2023-02-19T22:55:37.313Z,101625.06
2023-02-19T22:58:08.874Z,101629.03
2023-02-19T23:00:40.377Z,101630.16
2023-02-19T23:03:12.040Z,101626.97
2023-02-19T23:05:43.600Z,101622.00
2023-02-19T23:08:15.141Z,101615.22
2023-02-19T23:10:46.631Z,101607.34
2023-02-19T23:13:18.166Z,101619.66
2023-02-19T23:15:49.653Z,101624.63
2023-02-19T23:18:21.153Z,101623.78
2023-02-19T23:20:52.618Z,101623.78
2023-02-19T23:23:24.129Z,101616.88
2023-02-19T23:25:55.603Z,101612.72
2023-02-19T23:28:27.205Z,101616.06
2023-02-19T23:30:58.808Z,101612.47
2023-02-19T23:33:30.397Z,101610.81
2023-02-19T23:36:01.905Z,101610.81
2023-02-19T23:38:33.787Z,101607.19
2023-02-19T23:41:05.282Z,101610.09
2023-02-19T23:43:37.092Z,101598.78
2023-02-19T23:46:08.647Z,101594.22
2023-02-19T23:48:40.627Z,101591.59
2023-02-19T23:51:12.148Z,101584.81
2023-02-19T23:53:43.962Z,101580.13
2023-02-19T23:56:15.500Z,101583.56
2023-02-19T23:58:47.099Z,101588.41
